Doorwerth, Netherlands
Current Conditions -  °F | °C
As of 11:25 PM on Monday 26 Jan 2015 (Local Time) from EHDL Reporting Station
Scattered Clouds Scattered Clouds  
Wind Chill: 33°   Ceiling: Unl
Heat Index: 39°   Visibility: 6mi
Dew Point: 36°   Wind: 9mph
Humidity: 87%   Direction: 310°NW
Pressure: 30.12"   Gusts: NA
Location:  51.98°N, 5.8°E
Report Text: EHDL 262225Z AUTO 31008KT 9999 FEW033 SCT045 04/02 Q1020 BLU
Loading
Personal Weather Stations






























Interactive Weather Map New forecast layout! Learn more

10-Day Weather Forecast

Advertisements
Track Severe Weather on mobile